Погода Норт-Тастинна неделю

Калифорния, США

01 - 07 сентября
  • 01сентября
    Сегодня
    +18°
    +26°
    Ясно и безоблачно
    ВремяПогодаТемператураВлажностьДавлениеВетер, м/сВероятность осадков
    02:00Ясно и безоблачно+19°C80 %754 мм0.8 м/с2 %
    05:00Ясно и безоблачно+20°C79 %754 мм0.0 м/с2 %
    08:00Ясно и безоблачно+21°C74 %755 мм0.7 м/с2 %
    11:00Ясно и безоблачно+25°C55 %755 мм3.3 м/с2 %
    14:00Ясно и безоблачно+26°C52 %754 мм5.2 м/с2 %
    17:00Ясно и безоблачно+25°C52 %753 мм5.0 м/с2 %
    20:00Ясно и безоблачно+22°C67 %754 мм3.1 м/с2 %
    23:00Ясно и безоблачно+21°C69 %755 мм1.7 м/с2 %
  • 02сентября
    Среда
    +19°
    +26°
    Ясно и безоблачно
    ВремяПогодаТемператураВлажностьДавлениеВетер, м/сВероятность осадков
    02:00Ясно и безоблачно+20°C74 %755 мм0.6 м/с2 %
    05:00Ясно и безоблачно+19°C74 %755 мм0.2 м/с2 %
    08:00Ясно и безоблачно+20°C73 %755 мм1.2 м/с2 %
    11:00Ясно и безоблачно+24°C56 %755 мм3.3 м/с2 %
    14:00Ясно и безоблачно+26°C51 %754 мм5.0 м/с2 %
    17:00Ясно и безоблачно+25°C53 %753 мм4.9 м/с2 %
    20:00Ясно и безоблачно+22°C62 %753 мм2.9 м/с2 %
    23:00Ясно и безоблачно+21°C70 %754 мм1.7 м/с2 %
  • 03сентября
    Четверг
    +19°
    +26°
    Ясно и безоблачно
    ВремяПогодаТемператураВлажностьДавлениеВетер, м/сВероятность осадков
    02:00Ясно и безоблачно+20°C76 %754 мм1.3 м/с2 %
    05:00Небольшая облачность+20°C74 %753 мм1.1 м/с2 %
    08:00Облачно с прояснениями+21°C73 %754 мм1.9 м/с2 %
    11:00Ясно и безоблачно+24°C58 %754 мм3.7 м/с2 %
    14:00Ясно и безоблачно+25°C56 %752 мм5.3 м/с2 %
    17:00Ясно и безоблачно+24°C63 %752 мм4.8 м/с2 %
    20:00Ясно и безоблачно+22°C71 %752 мм3.2 м/с2 %
    23:00Ясно и безоблачно+21°C74 %753 мм1.7 м/с2 %
  • 04сентября
    Пятница
    +19°
    +26°
    Ясно и безоблачно
    ВремяПогодаТемператураВлажностьДавлениеВетер, м/сВероятность осадков
    02:00Практически безоблачно+21°C79 %752 мм1.2 м/с2 %
    05:00Практически безоблачно+20°C79 %752 мм0.3 м/с2 %
    08:00Ясно и безоблачно+21°C77 %753 мм1.5 м/с2 %
    11:00Ясно и безоблачно+25°C57 %753 мм3.4 м/с2 %
    14:00Ясно и безоблачно+26°C54 %752 мм4.7 м/с2 %
    17:00Ясно и безоблачно+25°C57 %752 мм4.4 м/с2 %
    20:00Ясно и безоблачно+22°C77 %752 мм2.7 м/с2 %
    23:00Ясно и безоблачно+21°C79 %753 мм1.4 м/с2 %
  • 05сентября
    Суббота
    +22°
    +28°
    Ясно и безоблачно
    ВремяПогодаТемператураВлажностьДавлениеВетер, м/сВероятность осадков
    02:00Ясно и безоблачно+21°C83 %753 мм0.3 м/с3 %
    05:00Ясно и безоблачно+20°C82 %752 мм0.0 м/с8 %
    08:00Ясно и безоблачно+21°C75 %753 мм0.5 м/с12 %
    11:00Ясно и безоблачно+26°C53 %753 мм3.1 м/с14 %
    14:00Ясно и безоблачно+28°C48 %752 мм4.5 м/с24 %
    17:00Ясно и безоблачно+26°C48 %752 мм4.5 м/с19 %
    20:00Ясно и безоблачно+24°C65 %752 мм2.7 м/с16 %
    23:00Небольшая облачность+23°C74 %753 мм1.8 м/с25 %
  • 06сентября
    Воскресенье
    +19°
    +29°
    Практически безоблачно
    ВремяПогодаТемператураВлажностьДавлениеВетер, м/сВероятность осадков
    05:00Небольшая облачность+22°C75 %752 мм0.3 м/с26 %
    11:00Практически безоблачно+26°C90 %753 мм2.3 м/с25 %
    17:00Ясно и безоблачно+28°C63 %752 мм3.3 м/с28 %
    23:00Ясно и безоблачно+22°C64 %753 мм1.7 м/с24 %
  • 07сентября
    Понедельник
    +17°
    +31°
    Ясно и безоблачно
    ВремяПогодаТемператураВлажностьДавлениеВетер, м/сВероятность осадков
    05:00Ясно и безоблачно+20°C76 %752 мм1.4 м/с15 %
    11:00Ясно и безоблачно+27°C42 %753 мм2.3 м/с22 %
    17:00Ясно и безоблачно+28°C38 %751 мм4.2 м/с26 %
    23:00Ясно и безоблачно+20°C74 %752 мм1.5 м/с14 %
Мы используем cookies
Соглашаюсь